Time;durP1;ratioP1;P1;durP2;ratioP2;P2;SDS_P1;SDS_P2;PMS_P1;PMS_P2;Temp;Humidity;BMP_temperature;BMP_pressure;BME280_temperature;BME280_humidity;BME280_pressure;Samples;Min_cycle;Max_cycle;Signal;HPM_P1;HPM_P2
2022/08/08 00:02:20;;;;;;;2.47;1.50;;;17.80;90.50;;;;;;5030448;28;20200;-73
2022/08/08 00:04:48;;;;;;;1.60;1.50;;;17.70;91.10;;;;;;5030116;28;20177;-73
2022/08/08 00:07:23;;;;;;;1.52;1.42;;;17.60;92.00;;;;;;5032227;28;20249;-73
2022/08/08 00:10:02;;;;;;;1.52;1.48;;;17.60;92.50;;;;;;5054553;28;20211;-73
2022/08/08 00:12:36;;;;;;;1.60;1.60;;;17.50;92.60;;;;;;5031774;28;20222;-73
2022/08/08 00:15:14;;;;;;;2.38;1.65;;;17.50;92.60;;;;;;5035456;28;20294;-73
2022/08/08 00:17:58;;;;;;;1.90;1.42;;;17.50;93.30;;;;;;5025372;28;20258;-73
2022/08/08 00:20:45;;;;;;;1.52;1.50;;;17.50;93.30;;;;;;5032112;28;20188;-73
2022/08/08 00:23:22;;;;;;;1.30;1.30;;;17.40;93.10;;;;;;5031157;28;20181;-73
2022/08/08 00:25:52;;;;;;;1.67;1.52;;;17.40;93.40;;;;;;5038328;28;20254;-73
2022/08/08 00:28:32;;;;;;;1.52;1.40;;;17.40;93.30;;;;;;5030156;28;20188;-73
2022/08/08 00:30:59;;;;;;;1.48;1.38;;;17.40;93.30;;;;;;5033960;28;20279;-73
2022/08/08 00:33:31;;;;;;;1.63;1.40;;;17.30;93.20;;;;;;5035764;28;20589;-73
2022/08/08 00:36:07;;;;;;;2.03;1.27;;;17.30;93.20;;;;;;5027514;28;20220;-73
2022/08/08 00:38:50;;;;;;;2.97;1.48;;;17.20;93.40;;;;;;5027723;28;20208;-73
2022/08/08 00:41:31;;;;;;;1.70;1.60;;;17.10;93.80;;;;;;5034866;28;20179;-73
2022/08/08 00:44:24;;;;;;;2.03;1.20;;;17.10;94.80;;;;;;5029090;28;20204;-73
2022/08/08 00:47:28;;;;;;;1.30;1.30;;;17.00;95.10;;;;;;5021286;28;20695;-73
2022/08/08 00:50:06;;;;;;;1.50;1.40;;;17.00;95.70;;;;;;5037668;28;20193;-72
2022/08/08 00:52:55;;;;;;;2.30;1.52;;;17.00;96.00;;;;;;5028670;28;20185;-73
2022/08/08 00:55:23;;;;;;;1.80;1.70;;;16.90;96.30;;;;;;5031307;28;20694;-72
2022/08/08 00:58:40;;;;;;;2.35;1.45;;;16.90;96.80;;;;;;5031746;28;20682;-73
2022/08/08 01:01:15;;;;;;;1.40;1.30;;;16.90;96.70;;;;;;5031628;28;20181;-73
2022/08/08 01:04:18;;;;;;;2.40;1.38;;;16.80;97.00;;;;;;5033363;28;20182;-72
2022/08/08 01:07:05;;;;;;;2.45;1.63;;;16.90;97.00;;;;;;5029874;28;20211;-73
2022/08/08 01:10:02;;;;;;;2.45;1.77;;;17.00;97.00;;;;;;5029253;28;20709;-72
2022/08/08 01:12:49;;;;;;;1.65;1.48;;;16.90;96.70;;;;;;5027487;28;21226;-73
2022/08/08 01:15:42;;;;;;;1.98;1.60;;;16.90;97.00;;;;;;5031697;28;20199;-73
2022/08/08 01:18:38;;;;;;;1.67;1.20;;;16.70;98.00;;;;;;5033225;28;20448;-73
2022/08/08 01:21:37;;;;;;;1.60;1.50;;;16.60;98.40;;;;;;5037305;28;20204;-73
2022/08/08 01:24:23;;;;;;;1.50;1.40;;;16.60;98.40;;;;;;5025759;28;20239;-72
2022/08/08 01:27:08;;;;;;;2.03;1.42;;;16.50;98.50;;;;;;5026694;28;20571;-73
2022/08/08 01:30:19;;;;;;;1.70;1.48;;;16.40;99.30;;;;;;5029089;28;20678;-73
2022/08/08 01:33:14;;;;;;;2.88;1.60;;;16.30;99.80;;;;;;5025230;28;20233;-73
2022/08/08 01:36:13;;;;;;;1.15;1.15;;;16.20;99.90;;;;;;5024688;28;20232;-73
2022/08/08 01:39:11;;;;;;;1.52;1.42;;;16.10;99.90;;;;;;5026088;28;20369;-73
2022/08/08 01:42:05;;;;;;;1.48;1.38;;;16.10;99.90;;;;;;5028171;28;20575;-73
2022/08/08 01:44:39;;;;;;;2.00;1.90;;;16.10;99.90;;;;;;5032176;28;20196;-73
2022/08/08 01:48:01;;;;;;;1.50;1.40;;;16.10;99.90;;;;;;5029810;28;20191;-73
2022/08/08 01:50:56;;;;;;;1.42;1.40;;;16.10;99.90;;;;;;5052400;28;20498;-73
2022/08/08 01:54:03;;;;;;;1.60;1.50;;;16.00;99.90;;;;;;5031936;28;20180;-73
2022/08/08 01:56:41;;;;;;;1.40;1.30;;;16.00;99.90;;;;;;5032995;28;20230;-73
2022/08/08 01:59:31;;;;;;;1.30;1.30;;;15.90;99.90;;;;;;5029528;28;20581;-73
2022/08/08 02:02:07;;;;;;;1.35;1.25;;;15.90;99.90;;;;;;5028475;28;20546;-73
2022/08/08 02:04:40;;;;;;;1.80;1.70;;;15.80;99.90;;;;;;5030605;28;20172;-73
2022/08/08 02:07:20;;;;;;;1.58;1.55;;;15.80;99.90;;;;;;5030085;28;20185;-73
2022/08/08 02:10:22;;;;;;;1.50;1.50;;;15.80;99.90;;;;;;5033166;28;20180;-73
2022/08/08 02:13:09;;;;;;;5.20;1.60;;;15.80;99.90;;;;;;5026030;28;20192;-73
2022/08/08 02:16:01;;;;;;;1.38;1.38;;;15.80;99.90;;;;;;5028935;28;20280;-73
2022/08/08 02:18:41;;;;;;;1.58;1.48;;;15.80;99.90;;;;;;5026741;28;20200;-73
2022/08/08 02:24:07;;;;;;;1.38;1.27;;;15.70;99.90;;;;;;5021864;28;20180;-73
2022/08/08 02:26:44;;;;;;;1.60;1.50;;;15.70;99.90;;;;;;5028625;28;20573;-72
2022/08/08 02:29:32;;;;;;;2.78;1.52;;;15.60;99.90;;;;;;5037116;28;20177;-73
2022/08/08 02:32:17;;;;;;;1.38;1.38;;;15.70;99.90;;;;;;5040914;28;20640;-73
2022/08/08 02:35:01;;;;;;;1.42;1.42;;;15.60;99.90;;;;;;5035075;28;20258;-73
2022/08/08 02:38:16;;;;;;;1.52;1.42;;;15.50;99.90;;;;;;5029519;28;20205;-73
2022/08/08 02:41:19;;;;;;;2.17;1.70;;;15.60;99.90;;;;;;5030904;28;20192;-73
2022/08/08 02:44:26;;;;;;;1.65;1.55;;;15.50;99.90;;;;;;5027902;28;20204;-72
2022/08/08 02:47:30;;;;;;;1.70;1.60;;;15.50;99.90;;;;;;5016382;28;20208;-72
2022/08/08 02:50:02;;;;;;;1.83;1.73;;;15.60;99.90;;;;;;5035676;28;20203;-72
2022/08/08 02:52:57;;;;;;;1.90;1.80;;;15.60;99.90;;;;;;5030694;28;20195;-73
2022/08/08 02:56:00;;;;;;;1.52;1.42;;;15.50;99.90;;;;;;5046277;28;20224;-73
2022/08/08 02:59:04;;;;;;;1.80;1.70;;;15.40;99.90;;;;;;5036051;28;20303;-73
2022/08/08 03:01:48;;;;;;;1.40;1.40;;;15.30;99.90;;;;;;5030932;28;20658;-73
2022/08/08 03:04:59;;;;;;;1.40;1.40;;;15.20;99.90;;;;;;5022689;28;20188;-73
2022/08/08 03:07:57;;;;;;;1.80;1.70;;;15.10;99.90;;;;;;5033610;28;20236;-72
2022/08/08 03:11:01;;;;;;;2.00;1.90;;;15.10;99.90;;;;;;5042931;28;20201;-73
2022/08/08 03:13:29;;;;;;;1.65;1.63;;;15.20;99.90;;;;;;5029779;28;20232;-73
2022/08/08 03:16:03;;;;;;;1.50;1.48;;;15.20;99.90;;;;;;5037000;28;20283;-72
2022/08/08 03:18:37;;;;;;;2.65;1.70;;;15.20;99.90;;;;;;5038251;28;20239;-72
2022/08/08 03:21:02;;;;;;;1.77;1.70;;;15.20;99.90;;;;;;5030779;28;20279;-73
2022/08/08 03:23:31;;;;;;;1.85;1.73;;;15.20;99.90;;;;;;5031312;28;20623;-73
2022/08/08 03:25:57;;;;;;;1.80;1.70;;;15.20;99.90;;;;;;5031654;28;20224;-73
2022/08/08 03:28:34;;;;;;;2.80;1.73;;;15.20;99.90;;;;;;5033033;28;20580;-73
2022/08/08 03:33:16;;;;;;;1.98;1.88;;;15.10;99.90;;;;;;5033322;28;20188;-73
2022/08/08 03:33:46;;;;;;;1.45;1.45;;;15.10;99.90;;;;;;5034083;28;20227;-73
2022/08/08 03:36:13;;;;;;;2.45;1.70;;;15.10;99.90;;;;;;5040112;28;20243;-73
2022/08/08 03:38:39;;;;;;;1.83;1.73;;;14.90;99.90;;;;;;5038571;28;20204;-73
2022/08/08 03:41:05;;;;;;;1.52;1.52;;;14.90;99.90;;;;;;5032316;28;20335;-73
2022/08/08 03:43:30;;;;;;;1.77;1.67;;;14.80;99.90;;;;;;5034923;28;20176;-74
2022/08/08 03:45:56;;;;;;;2.08;1.98;;;14.80;99.90;;;;;;5032317;28;20196;-73
2022/08/08 03:48:22;;;;;;;2.15;2.00;;;14.80;99.90;;;;;;5032384;28;20188;-73
2022/08/08 03:50:49;;;;;;;1.60;1.60;;;14.80;99.90;;;;;;5039586;28;20834;-73
2022/08/08 03:53:17;;;;;;;1.90;1.80;;;14.80;99.90;;;;;;5029508;28;20219;-73
2022/08/08 03:55:45;;;;;;;1.60;1.50;;;14.90;99.90;;;;;;5035356;28;20208;-73
2022/08/08 03:58:37;;;;;;;2.30;2.10;;;14.90;99.90;;;;;;5029382;28;20208;-73
2022/08/08 04:01:04;;;;;;;1.98;1.88;;;14.80;99.90;;;;;;5027507;28;20184;-73
2022/08/08 04:03:37;;;;;;;1.98;1.77;;;14.70;99.90;;;;;;5040565;28;20168;-73
2022/08/08 04:06:06;;;;;;;2.63;1.85;;;14.70;99.90;;;;;;5031991;28;20207;-72
2022/08/08 04:08:35;;;;;;;2.10;2.00;;;14.60;99.90;;;;;;5036522;28;20194;-72
2022/08/08 04:11:02;;;;;;;2.05;1.95;;;14.50;99.90;;;;;;5031713;28;20193;-72
2022/08/08 04:13:28;;;;;;;1.85;1.75;;;14.50;99.90;;;;;;5039918;28;20691;-72
2022/08/08 04:15:53;;;;;;;1.85;1.75;;;14.50;99.90;;;;;;5032085;28;20219;-72
2022/08/08 04:18:19;;;;;;;2.30;1.80;;;14.50;99.90;;;;;;5020519;28;20216;-73
2022/08/08 04:20:45;;;;;;;3.72;2.03;;;14.50;99.90;;;;;;5028533;28;20187;-73
2022/08/08 04:23:10;;;;;;;1.98;1.83;;;14.50;99.90;;;;;;5025669;28;20182;-72
2022/08/08 04:25:36;;;;;;;2.55;1.85;;;14.60;99.90;;;;;;5021560;28;20570;-73
2022/08/08 04:28:02;;;;;;;2.60;1.73;;;14.60;99.90;;;;;;5031175;28;20266;-73
2022/08/08 04:30:27;;;;;;;2.45;2.00;;;14.60;99.90;;;;;;5030060;28;20675;-77
2022/08/08 04:32:53;;;;;;;2.17;2.08;;;14.60;99.90;;;;;;5032383;28;20184;-73
2022/08/08 04:35:19;;;;;;;1.75;1.75;;;14.70;99.90;;;;;;5028566;28;20203;-72
2022/08/08 04:37:44;;;;;;;2.55;2.10;;;14.70;99.90;;;;;;5029223;28;20207;-73
2022/08/08 04:40:11;;;;;;;2.47;1.92;;;14.80;99.90;;;;;;5024059;28;20177;-73
2022/08/08 04:42:37;;;;;;;2.03;1.80;;;14.80;99.90;;;;;;5033791;28;20264;-73
2022/08/08 04:45:04;;;;;;;2.70;1.70;;;14.90;99.90;;;;;;5028985;28;20196;-73
2022/08/08 04:47:30;;;;;;;2.05;1.95;;;15.00;99.90;;;;;;5033687;28;20210;-72
2022/08/08 04:49:55;;;;;;;1.75;1.63;;;15.00;99.90;;;;;;5025056;28;20208;-72
2022/08/08 04:52:21;;;;;;;3.00;1.77;;;15.10;99.90;;;;;;5024794;28;20181;-72
2022/08/08 04:54:47;;;;;;;1.88;1.73;;;15.10;99.90;;;;;;5029319;28;20548;-72
2022/08/08 04:57:13;;;;;;;2.78;2.00;;;15.20;99.90;;;;;;5031159;28;20684;-72
2022/08/08 04:59:39;;;;;;;1.60;1.50;;;15.20;99.90;;;;;;5030793;28;20209;-72
2022/08/08 05:02:05;;;;;;;3.15;2.15;;;15.30;99.90;;;;;;5027703;28;20188;-72
2022/08/08 05:04:31;;;;;;;1.92;1.83;;;15.30;99.90;;;;;;5030192;28;20169;-73
2022/08/08 05:06:56;;;;;;;2.10;2.00;;;15.40;99.90;;;;;;5038265;28;20311;-73
2022/08/08 05:09:22;;;;;;;3.05;1.63;;;15.40;99.90;;;;;;5026382;28;20238;-72
2022/08/08 05:11:48;;;;;;;2.05;1.83;;;15.60;99.90;;;;;;5031841;28;20188;-75
2022/08/08 05:14:14;;;;;;;2.08;1.98;;;15.60;99.90;;;;;;5025803;28;20687;-72
2022/08/08 05:16:41;;;;;;;2.35;1.77;;;15.70;99.90;;;;;;5028348;28;20338;-73
2022/08/08 05:19:11;;;;;;;1.88;1.77;;;15.70;99.90;;;;;;5027040;28;20287;-73
2022/08/08 05:21:41;;;;;;;1.70;1.63;;;15.80;99.90;;;;;;5035369;28;20175;-73
2022/08/08 05:24:07;;;;;;;5.15;1.90;;;15.90;99.90;;;;;;5027220;28;21198;-73
2022/08/08 05:26:34;;;;;;;2.20;2.00;;;15.80;99.90;;;;;;5022325;28;20586;-73
2022/08/08 05:29:02;;;;;;;2.38;1.75;;;15.90;99.90;;;;;;5027279;28;20185;-73
2022/08/08 05:31:29;;;;;;;2.60;2.05;;;15.90;99.90;;;;;;5028564;28;20183;-77
2022/08/08 05:33:55;;;;;;;2.17;2.08;;;15.90;99.90;;;;;;5037766;28;20177;-77
2022/08/08 05:36:24;;;;;;;2.05;1.90;;;16.00;99.90;;;;;;5035852;28;20736;-78
2022/08/08 05:38:51;;;;;;;1.98;1.88;;;16.00;99.90;;;;;;5031954;28;20254;-77
2022/08/08 05:41:20;;;;;;;2.88;1.58;;;16.10;99.90;;;;;;5033541;28;20191;-77
2022/08/08 05:43:46;;;;;;;3.17;1.90;;;16.20;99.90;;;;;;5034242;28;20242;-77
2022/08/08 05:46:14;;;;;;;2.45;1.83;;;16.30;99.90;;;;;;5028355;28;20195;-77
2022/08/08 05:48:39;;;;;;;3.22;1.65;;;16.40;99.90;;;;;;5039564;28;20254;-76
2022/08/08 05:51:05;;;;;;;3.40;2.22;;;16.50;99.90;;;;;;5036975;28;20180;-78
2022/08/08 05:53:31;;;;;;;3.33;1.63;;;16.60;99.90;;;;;;5031594;28;20189;-77
2022/08/08 05:55:58;;;;;;;2.10;2.00;;;16.60;99.90;;;;;;5026024;28;20628;-78
2022/08/08 05:58:31;;;;;;;2.42;2.10;;;16.70;99.90;;;;;;5028319;28;20268;-77
2022/08/08 06:00:59;;;;;;;2.10;1.95;;;16.80;99.90;;;;;;5028118;28;20566;-77
2022/08/08 06:03:27;;;;;;;2.92;2.20;;;16.90;99.90;;;;;;5036081;28;20705;-77
2022/08/08 06:05:58;;;;;;;1.40;1.40;;;16.90;99.90;;;;;;5024293;28;20200;-77
2022/08/08 06:08:42;;;;;;;3.50;1.70;;;17.00;99.90;;;;;;5028140;28;20184;-76
2022/08/08 06:11:09;;;;;;;5.28;1.88;;;17.10;99.90;;;;;;5025628;28;20185;-76
2022/08/08 06:13:34;;;;;;;1.75;1.70;;;17.20;99.90;;;;;;5028959;28;20197;-77
2022/08/08 06:16:00;;;;;;;2.35;1.90;;;17.30;99.90;;;;;;5026336;28;20217;-76
2022/08/08 06:18:28;;;;;;;1.77;1.63;;;17.30;99.90;;;;;;5027515;28;20292;-77
2022/08/08 06:20:57;;;;;;;2.65;1.80;;;17.40;99.90;;;;;;5028442;28;20200;-76
2022/08/08 06:23:26;;;;;;;3.95;2.15;;;17.50;99.90;;;;;;5028270;28;20176;-76
2022/08/08 06:26:02;;;;;;;3.25;1.85;;;17.60;99.90;;;;;;5028463;28;20557;-76
2022/08/08 06:28:33;;;;;;;6.90;1.75;;;17.70;99.90;;;;;;5026753;28;20226;-76
2022/08/08 06:31:01;;;;;;;2.72;1.70;;;17.70;99.90;;;;;;5031232;28;20660;-77
2022/08/08 06:33:38;;;;;;;2.00;1.83;;;17.80;99.90;;;;;;5023793;28;20219;-76
2022/08/08 06:36:05;;;;;;;2.83;1.67;;;17.90;99.90;;;;;;5032733;28;20706;-76
2022/08/08 06:38:35;;;;;;;1.77;1.67;;;18.00;99.90;;;;;;5033092;28;20203;-77
2022/08/08 06:41:06;;;;;;;3.17;1.92;;;18.10;99.90;;;;;;5029295;28;20589;-80
2022/08/08 06:43:35;;;;;;;1.95;1.60;;;18.20;99.90;;;;;;5026946;28;20255;-77
2022/08/08 06:46:03;;;;;;;2.92;1.73;;;18.30;99.80;;;;;;5024314;28;20200;-77
2022/08/08 06:48:29;;;;;;;1.48;1.40;;;18.40;99.90;;;;;;5026158;28;20296;-76
2022/08/08 06:50:55;;;;;;;2.05;1.85;;;18.50;98.00;;;;;;5032230;28;20300;-76
2022/08/08 06:53:22;;;;;;;1.48;1.38;;;18.60;97.10;;;;;;5023066;28;20177;-77
2022/08/08 06:55:48;;;;;;;5.47;1.50;;;18.70;97.40;;;;;;5030054;28;20254;-77
2022/08/08 06:58:13;;;;;;;2.67;1.70;;;18.80;97.00;;;;;;5028718;28;20679;-77
2022/08/08 07:00:42;;;;;;;1.92;1.60;;;19.00;96.80;;;;;;5022129;28;20623;-77
2022/08/08 07:03:25;;;;;;;3.28;1.80;;;19.20;96.00;;;;;;5030827;28;20184;-77
2022/08/08 07:05:54;;;;;;;4.05;1.80;;;19.30;94.80;;;;;;5030542;28;20199;-77
2022/08/08 07:08:28;;;;;;;2.80;1.45;;;19.30;94.30;;;;;;5028113;28;20172;-74
2022/08/08 07:10:58;;;;;;;3.75;1.52;;;19.50;94.80;;;;;;5031248;28;20573;-75
2022/08/08 07:13:31;;;;;;;2.15;1.73;;;19.60;94.50;;;;;;5027687;28;20200;-74
2022/08/08 07:16:07;;;;;;;3.28;1.70;;;19.70;93.60;;;;;;5032652;28;20204;-73
2022/08/08 07:18:41;;;;;;;3.60;1.70;;;19.80;92.60;;;;;;5027736;28;20295;-76
2022/08/08 07:21:07;;;;;;;2.05;1.40;;;19.90;92.90;;;;;;5028231;28;20207;-74
2022/08/08 07:23:49;;;;;;;2.25;1.58;;;20.00;92.20;;;;;;5032380;28;20184;-74
2022/08/08 07:26:16;;;;;;;2.40;1.35;;;20.10;92.30;;;;;;5030438;28;20197;-73
2022/08/08 07:28:42;;;;;;;7.53;1.80;;;20.20;92.10;;;;;;5026101;28;20181;-73
2022/08/08 07:31:08;;;;;;;6.72;1.80;;;20.40;91.00;;;;;;5038069;28;20696;-73
2022/08/08 07:33:35;;;;;;;3.95;1.90;;;20.40;91.00;;;;;;5032770;28;20272;-73
2022/08/08 07:36:04;;;;;;;1.83;1.55;;;20.50;91.00;;;;;;5028379;28;20208;-73
2022/08/08 07:38:31;;;;;;;4.80;1.52;;;20.60;91.40;;;;;;5028890;28;20204;-73
2022/08/08 07:40:57;;;;;;;4.63;1.77;;;20.70;90.60;;;;;;5033698;28;20180;-73
2022/08/08 07:43:23;;;;;;;1.55;1.45;;;20.80;90.60;;;;;;5025393;28;20192;-73
2022/08/08 07:45:49;;;;;;;4.55;1.95;;;21.00;91.20;;;;;;5036793;28;20188;-73
2022/08/08 07:48:15;;;;;;;3.78;1.52;;;21.10;91.00;;;;;;5030778;28;20191;-73
2022/08/08 07:50:42;;;;;;;3.33;1.52;;;21.20;89.00;;;;;;5034844;28;20268;-73
2022/08/08 07:53:20;;;;;;;2.20;1.63;;;21.20;88.90;;;;;;5028247;28;20196;-73
2022/08/08 07:55:49;;;;;;;1.17;1.13;;;21.30;88.50;;;;;;5025881;28;20226;-73
2022/08/08 07:58:39;;;;;;;1.45;1.35;;;21.40;88.10;;;;;;5034968;28;20283;-73
2022/08/08 08:01:10;;;;;;;2.85;1.55;;;21.70;86.90;;;;;;5027443;28;20180;-73
2022/08/08 08:03:48;;;;;;;1.65;1.55;;;21.80;85.40;;;;;;5030915;28;20169;-73
2022/08/08 08:06:16;;;;;;;1.85;1.50;;;21.90;83.90;;;;;;5025891;28;20208;-73
2022/08/08 08:08:48;;;;;;;1.73;1.20;;;22.00;83.80;;;;;;5035370;28;20183;-73
2022/08/08 08:11:18;;;;;;;1.95;1.52;;;22.00;83.30;;;;;;5026201;28;20180;-73
2022/08/08 08:13:52;;;;;;;3.25;1.30;;;22.10;83.00;;;;;;5036106;28;20191;-73
2022/08/08 08:16:23;;;;;;;2.10;1.52;;;22.10;84.30;;;;;;5031451;28;20200;-73
2022/08/08 08:18:57;;;;;;;2.30;1.58;;;22.30;83.90;;;;;;5029272;28;20571;-77
2022/08/08 08:21:28;;;;;;;1.70;1.50;;;22.40;82.90;;;;;;5022433;28;20181;-76
2022/08/08 08:23:54;;;;;;;1.35;1.25;;;22.60;83.10;;;;;;5030125;28;20193;-74
2022/08/08 08:26:20;;;;;;;2.00;1.80;;;22.70;81.80;;;;;;5027495;28;20197;-73
2022/08/08 08:28:47;;;;;;;3.08;1.40;;;22.80;84.20;;;;;;5032391;28;20588;-72
2022/08/08 08:31:13;;;;;;;1.67;1.60;;;22.80;83.30;;;;;;5031748;28;20482;-73
2022/08/08 08:33:39;;;;;;;2.58;1.73;;;22.80;83.30;;;;;;5031334;28;20549;-71
2022/08/08 08:36:12;;;;;;;1.40;1.40;;;22.80;83.30;;;;;;5033398;28;20196;-71
2022/08/08 08:38:38;;;;;;;1.63;1.52;;;22.90;83.10;;;;;;5029305;28;20581;-71
2022/08/08 08:41:05;;;;;;;2.70;1.80;;;23.00;83.60;;;;;;5032896;28;20543;-71
2022/08/08 08:43:33;;;;;;;4.32;1.83;;;23.10;84.10;;;;;;5024938;28;20240;-71
2022/08/08 08:45:59;;;;;;;1.45;1.45;;;23.10;84.40;;;;;;5031051;28;20585;-71
2022/08/08 08:48:26;;;;;;;1.98;1.85;;;23.20;84.20;;;;;;5037268;28;20185;-71
2022/08/08 08:50:53;;;;;;;1.77;1.55;;;23.30;85.40;;;;;;5033554;28;20290;-72
2022/08/08 08:53:20;;;;;;;1.45;1.40;;;23.30;85.00;;;;;;5024974;28;20180;-74
2022/08/08 08:55:47;;;;;;;5.97;1.83;;;23.50;83.20;;;;;;5029163;28;20207;-71
2022/08/08 08:58:34;;;;;;;2.20;2.00;;;23.60;83.30;;;;;;5024334;28;20208;-73
2022/08/08 09:01:01;;;;;;;3.05;2.10;;;23.70;83.50;;;;;;5029688;28;20200;-74
2022/08/08 09:03:29;;;;;;;2.55;1.92;;;23.80;81.30;;;;;;5033689;28;20185;-73
2022/08/08 09:05:56;;;;;;;2.10;1.80;;;24.00;81.30;;;;;;5028180;28;20228;-73
2022/08/08 09:08:23;;;;;;;2.20;2.00;;;24.20;81.50;;;;;;5027296;28;20235;-74
2022/08/08 09:10:49;;;;;;;1.60;1.52;;;24.20;79.20;;;;;;5028578;28;20709;-74
2022/08/08 09:13:20;;;;;;;2.47;1.92;;;24.30;79.90;;;;;;5026682;28;20192;-73
2022/08/08 09:15:47;;;;;;;2.03;1.90;;;24.40;79.40;;;;;;5036518;28;20195;-73
2022/08/08 09:18:17;;;;;;;1.90;1.77;;;24.30;79.40;;;;;;5030061;28;20544;-73
2022/08/08 09:20:46;;;;;;;1.98;1.73;;;24.40;80.30;;;;;;5031239;28;20177;-73
2022/08/08 09:23:13;;;;;;;2.35;1.83;;;24.60;78.60;;;;;;5032829;28;20254;-73
2022/08/08 09:25:44;;;;;;;1.80;1.70;;;24.90;79.00;;;;;;5029709;28;20192;-73
2022/08/08 09:28:10;;;;;;;2.85;1.85;;;25.60;77.80;;;;;;5026344;28;20205;-73
2022/08/08 09:30:41;;;;;;;2.10;1.80;;;27.40;71.60;;;;;;5038896;28;20222;-74
2022/08/08 09:33:09;;;;;;;1.70;1.60;;;29.70;64.30;;;;;;5028950;28;20183;-71
2022/08/08 09:35:37;;;;;;;2.03;1.80;;;32.30;57.60;;;;;;5031008;28;20253;-71
2022/08/08 09:38:03;;;;;;;3.88;3.30;;;34.10;52.60;;;;;;5029790;28;20612;-71
2022/08/08 09:40:33;;;;;;;4.13;2.78;;;35.80;49.00;;;;;;5032293;28;20187;-72
2022/08/08 09:43:19;;;;;;;3.17;1.70;;;36.90;46.80;;;;;;5032397;28;20644;-71
2022/08/08 09:45:50;;;;;;;1.33;1.23;;;37.70;44.50;;;;;;5022024;28;20200;-74
2022/08/08 09:48:17;;;;;;;2.08;1.73;;;38.10;44.00;;;;;;5027618;28;20179;-72
2022/08/08 09:50:45;;;;;;;1.65;1.60;;;38.80;42.10;;;;;;5027247;28;20172;-72
2022/08/08 09:53:17;;;;;;;2.47;1.40;;;38.90;41.30;;;;;;5021472;28;20175;-72
2022/08/08 09:55:44;;;;;;;1.30;1.30;;;38.60;41.40;;;;;;5024421;28;20211;-73
2022/08/08 09:58:20;;;;;;;2.53;1.60;;;38.90;40.50;;;;;;5028461;28;20204;-71
2022/08/08 10:00:48;;;;;;;1.55;1.20;;;39.40;40.10;;;;;;5028771;28;20269;-74
2022/08/08 10:03:16;;;;;;;2.05;1.40;;;39.40;39.20;;;;;;5026978;28;20169;-73
2022/08/08 10:05:43;;;;;;;1.60;1.25;;;39.50;39.00;;;;;;5022880;28;20200;-73
2022/08/08 10:08:08;;;;;;;1.30;1.30;;;40.50;37.60;;;;;;5022782;28;20187;-73
2022/08/08 10:10:40;;;;;;;2.25;1.48;;;41.00;37.00;;;;;;5030754;28;20176;-74
2022/08/08 10:13:17;;;;;;;2.00;1.20;;;40.80;37.40;;;;;;5034433;28;20206;-75
2022/08/08 10:15:49;;;;;;;1.40;1.30;;;41.30;36.50;;;;;;5033434;28;20191;-75
2022/08/08 10:18:24;;;;;;;1.10;1.10;;;41.80;35.80;;;;;;5024159;28;20215;-74
2022/08/08 10:20:54;;;;;;;2.85;1.45;;;42.20;35.20;;;;;;5028569;28;20627;-76
2022/08/08 10:23:46;;;;;;;1.70;1.17;;;41.60;35.50;;;;;;5032703;28;20184;-76
2022/08/08 10:26:36;;;;;;;1.42;1.13;;;42.10;35.40;;;;;;5024943;28;20215;-75
2022/08/08 10:29:08;;;;;;;1.40;1.10;;;42.80;34.10;;;;;;5028244;28;20179;-74
2022/08/08 10:34:21;;;;;;;1.52;1.42;;;43.60;33.20;;;;;;5028752;28;20257;-75
2022/08/08 10:36:48;;;;;;;2.33;1.30;;;43.20;33.30;;;;;;5028896;28;20184;-74
2022/08/08 10:39:20;;;;;;;1.85;1.40;;;43.00;34.00;;;;;;5026718;28;20812;-75
2022/08/08 10:41:55;;;;;;;2.08;1.35;;;42.70;33.90;;;;;;5024373;28;20176;-75
2022/08/08 10:44:36;;;;;;;1.23;1.10;;;43.40;33.40;;;;;;5024174;28;20836;-73
2022/08/08 10:47:15;;;;;;;1.10;1.10;;;44.20;33.30;;;;;;5025195;28;20638;-74
2022/08/08 10:49:58;;;;;;;1.50;1.40;;;44.20;32.60;;;;;;5027860;28;21717;-73
2022/08/08 10:52:34;;;;;;;1.27;1.17;;;44.80;31.90;;;;;;5022694;28;20196;-74
2022/08/08 10:55:16;;;;;;;1.30;1.20;;;44.50;32.90;;;;;;5023477;28;20227;-73
2022/08/08 10:57:44;;;;;;;2.28;1.27;;;44.40;31.80;;;;;;5028310;28;20203;-75
2022/08/08 11:00:13;;;;;;;1.33;1.23;;;42.40;33.90;;;;;;5029258;28;20181;-74
2022/08/08 11:02:39;;;;;;;1.38;1.38;;;40.30;35.10;;;;;;5036622;28;20651;-74
2022/08/08 11:05:08;;;;;;;1.75;1.65;;;39.80;36.20;;;;;;5035191;28;20210;-75
2022/08/08 11:07:37;;;;;;;1.65;1.35;;;39.70;35.80;;;;;;5035767;28;20175;-74
2022/08/08 11:10:14;;;;;;;1.17;1.05;;;38.80;37.50;;;;;;5036176;28;20589;-74
2022/08/08 11:12:53;;;;;;;3.33;1.30;;;38.40;37.40;;;;;;5031825;28;20265;-73
2022/08/08 11:15:20;;;;;;;2.45;1.38;;;38.10;38.10;;;;;;5028988;28;20203;-72
2022/08/08 11:17:47;;;;;;;2.47;1.60;;;38.40;37.80;;;;;;5032557;28;20207;-75
2022/08/08 11:20:17;;;;;;;2.92;1.90;;;40.10;36.50;;;;;;5030456;28;20182;-77
2022/08/08 11:22:49;;;;;;;1.33;1.23;;;41.30;35.40;;;;;;5036968;28;20266;-76
2022/08/08 11:25:15;;;;;;;2.25;1.15;;;42.70;33.80;;;;;;5027731;28;20215;-76
2022/08/08 11:27:43;;;;;;;1.10;1.10;;;43.90;33.20;;;;;;5023910;28;20238;-76
2022/08/08 11:30:09;;;;;;;1.55;1.38;;;44.60;31.70;;;;;;5023158;28;20187;-75
2022/08/08 11:32:38;;;;;;;1.17;1.08;;;44.10;31.50;;;;;;5024871;28;20173;-76
2022/08/08 11:35:07;;;;;;;2.30;1.23;;;42.50;33.30;;;;;;5017552;28;20199;-78
2022/08/08 11:37:34;;;;;;;1.80;1.40;;;40.00;35.10;;;;;;5025325;28;20728;-77
2022/08/08 11:40:01;;;;;;;1.17;1.17;;;38.10;37.20;;;;;;5024709;28;20177;-77
2022/08/08 11:42:27;;;;;;;1.65;1.33;;;38.10;37.20;;;;;;5027287;28;20792;-77
2022/08/08 11:44:54;;;;;;;1.10;1.10;;;37.60;37.50;;;;;;5021102;28;20196;-77
2022/08/08 11:47:22;;;;;;;2.10;1.42;;;36.60;38.40;;;;;;5021819;28;20215;-77
2022/08/08 11:49:53;;;;;;;2.97;1.50;;;35.90;39.60;;;;;;5021197;28;20173;-77
2022/08/08 11:52:19;;;;;;;2.95;1.25;;;36.70;39.00;;;;;;5020155;28;20263;-77
2022/08/08 11:54:45;;;;;;;7.63;1.23;;;38.40;37.90;;;;;;5021260;28;20173;-77
2022/08/08 11:57:15;;;;;;;3.03;1.17;;;40.40;35.50;;;;;;5022512;28;20188;-77
2022/08/08 11:59:51;;;;;;;1.70;1.17;;;41.30;34.30;;;;;;5026991;28;20236;-78
2022/08/08 12:02:17;;;;;;;1.42;1.10;;;41.30;33.70;;;;;;5032856;28;20257;-76
2022/08/08 12:04:43;;;;;;;1.52;1.10;;;40.00;35.00;;;;;;5020218;28;20667;-78
2022/08/08 12:07:09;;;;;;;2.03;1.20;;;39.20;36.30;;;;;;5023011;28;20183;-75
2022/08/08 12:09:35;;;;;;;2.42;1.40;;;39.70;35.20;;;;;;5024332;28;20195;-73
2022/08/08 12:12:00;;;;;;;1.40;1.25;;;40.40;34.70;;;;;;5031456;28;20192;-71
2022/08/08 12:14:27;;;;;;;1.35;1.30;;;40.90;34.40;;;;;;5029194;28;20185;-71
2022/08/08 12:16:53;;;;;;;2.38;1.38;;;41.80;32.80;;;;;;5030524;28;20199;-70
2022/08/08 12:19:20;;;;;;;3.80;1.42;;;40.90;33.40;;;;;;5026288;28;20199;-70
2022/08/08 12:21:46;;;;;;;1.27;1.20;;;40.30;33.90;;;;;;5028157;28;20176;-70
2022/08/08 12:24:14;;;;;;;1.20;1.10;;;41.20;32.80;;;;;;5024909;28;20681;-71
2022/08/08 12:26:50;;;;;;;1.10;1.02;;;41.80;32.10;;;;;;5028558;28;20211;-70
2022/08/08 12:29:26;;;;;;;1.40;1.30;;;42.40;31.30;;;;;;5029101;28;20191;-70
2022/08/08 12:32:07;;;;;;;4.50;1.42;;;41.90;31.90;;;;;;5029477;28;20188;-71
2022/08/08 12:34:44;;;;;;;1.48;1.40;;;40.70;33.20;;;;;;5026373;28;20708;-72
2022/08/08 12:37:21;;;;;;;5.82;1.55;;;40.90;32.90;;;;;;5022284;28;20176;-72
2022/08/08 12:39:48;;;;;;;1.38;1.30;;;40.70;32.90;;;;;;5025190;28;20200;-72
2022/08/08 12:42:14;;;;;;;2.08;1.02;;;40.90;33.30;;;;;;5024918;28;20188;-72
2022/08/08 12:44:41;;;;;;;2.00;1.00;;;41.60;33.00;;;;;;5027186;28;20188;-72
2022/08/08 12:47:07;;;;;;;1.30;1.20;;;41.60;32.30;;;;;;5021433;28;20210;-72
2022/08/08 12:49:36;;;;;;;2.45;1.08;;;41.50;32.20;;;;;;5026254;28;20180;-72
2022/08/08 12:52:02;;;;;;;2.63;0.90;;;41.20;32.40;;;;;;5027283;28;20207;-72
2022/08/08 12:54:31;;;;;;;1.30;1.10;;;41.90;32.30;;;;;;5025188;28;20177;-72
2022/08/08 12:56:58;;;;;;;2.40;0.80;;;42.40;32.00;;;;;;5029653;28;20173;-73
2022/08/08 12:59:28;;;;;;;2.70;0.95;;;43.60;30.70;;;;;;5029888;28;20293;-72
2022/08/08 13:01:59;;;;;;;3.90;1.10;;;43.70;29.90;;;;;;5026152;28;20673;-73
2022/08/08 13:04:28;;;;;;;1.88;1.00;;;43.60;30.10;;;;;;5021347;28;20187;-72
2022/08/08 13:07:00;;;;;;;1.27;1.17;;;45.00;29.90;;;;;;5027343;28;20739;-71
2022/08/08 13:09:37;;;;;;;1.60;1.00;;;44.10;29.90;;;;;;5028389;28;20291;-72
2022/08/08 13:12:17;;;;;;;1.10;1.00;;;42.90;30.80;;;;;;5025572;28;20187;-71
2022/08/08 13:14:51;;;;;;;1.08;1.08;;;41.80;31.90;;;;;;5027534;28;20184;-71
2022/08/08 13:17:21;;;;;;;1.95;1.10;;;41.10;33.20;;;;;;5024440;28;20176;-71
2022/08/08 13:19:47;;;;;;;1.85;0.98;;;44.20;31.00;;;;;;5037002;28;20207;-71
2022/08/08 13:22:16;;;;;;;2.67;1.20;;;45.50;30.00;;;;;;5030187;28;20177;-71
2022/08/08 13:24:42;;;;;;;0.90;0.90;;;45.10;29.80;;;;;;5028356;28;20180;-71
2022/08/08 13:27:13;;;;;;;2.38;1.05;;;47.90;28.80;;;;;;5029492;28;20206;-71